sensor_id;sensor_type;location;lat;lon;timestamp;temperature;humidity
6480;DHT22;71753;48.772;9.148;2024-02-14T00:02:23;4.96;71.96
6480;DHT22;71753;48.772;9.148;2024-02-14T00:04:51;5.01;71.92
6480;DHT22;71753;48.772;9.148;2024-02-14T00:07:18;5.07;71.73
6480;DHT22;71753;48.772;9.148;2024-02-14T00:09:45;5.19;71.02
6480;DHT22;71753;48.772;9.148;2024-02-14T00:12:12;5.23;70.74
6480;DHT22;71753;48.772;9.148;2024-02-14T00:14:40;5.22;70.84
6480;DHT22;71753;48.772;9.148;2024-02-14T00:17:08;5.23;70.88
6480;DHT22;71753;48.772;9.148;2024-02-14T00:19:35;5.26;70.35
6480;DHT22;71753;48.772;9.148;2024-02-14T00:22:02;5.33;70.60
6480;DHT22;71753;48.772;9.148;2024-02-14T00:24:29;5.25;70.55
6480;DHT22;71753;48.772;9.148;2024-02-14T00:26:57;5.20;70.93
6480;DHT22;71753;48.772;9.148;2024-02-14T00:29:25;5.31;70.90
6480;DHT22;71753;48.772;9.148;2024-02-14T00:31:53;5.21;71.26
6480;DHT22;71753;48.772;9.148;2024-02-14T00:34:20;5.25;71.16
6480;DHT22;71753;48.772;9.148;2024-02-14T00:36:47;5.28;70.80
6480;DHT22;71753;48.772;9.148;2024-02-14T00:39:14;5.30;70.97
6480;DHT22;71753;48.772;9.148;2024-02-14T00:41:40;5.36;70.87
6480;DHT22;71753;48.772;9.148;2024-02-14T00:44:07;5.40;70.84
6480;DHT22;71753;48.772;9.148;2024-02-14T00:46:34;5.40;70.93
6480;DHT22;71753;48.772;9.148;2024-02-14T00:49:02;5.46;70.85
6480;DHT22;71753;48.772;9.148;2024-02-14T00:51:29;5.59;70.17
6480;DHT22;71753;48.772;9.148;2024-02-14T00:53:55;5.57;70.68
6480;DHT22;71753;48.772;9.148;2024-02-14T00:56:22;5.64;70.52
6480;DHT22;71753;48.772;9.148;2024-02-14T00:58:49;5.63;70.77
6480;DHT22;71753;48.772;9.148;2024-02-14T01:01:16;5.64;71.02
6480;DHT22;71753;48.772;9.148;2024-02-14T01:03:43;5.61;72.43
6480;DHT22;71753;48.772;9.148;2024-02-14T01:06:11;5.63;73.50
6480;DHT22;71753;48.772;9.148;2024-02-14T01:08:39;5.55;74.99
6480;DHT22;71753;48.772;9.148;2024-02-14T01:11:06;5.49;75.29
6480;DHT22;71753;48.772;9.148;2024-02-14T01:13:33;5.50;76.04
6480;DHT22;71753;48.772;9.148;2024-02-14T01:16:00;5.43;77.05
6480;DHT22;71753;48.772;9.148;2024-02-14T01:18:27;5.57;76.06
6480;DHT22;71753;48.772;9.148;2024-02-14T01:20:54;5.56;77.63
6480;DHT22;71753;48.772;9.148;2024-02-14T01:23:22;5.57;77.36
6480;DHT22;71753;48.772;9.148;2024-02-14T01:25:48;5.60;76.85
6480;DHT22;71753;48.772;9.148;2024-02-14T01:28:15;5.67;76.36
6480;DHT22;71753;48.772;9.148;2024-02-14T01:30:42;5.59;77.66
6480;DHT22;71753;48.772;9.148;2024-02-14T01:33:09;5.67;77.10
6480;DHT22;71753;48.772;9.148;2024-02-14T01:35:36;5.74;76.31
6480;DHT22;71753;48.772;9.148;2024-02-14T01:38:03;5.82;75.76
6480;DHT22;71753;48.772;9.148;2024-02-14T01:40:31;5.84;75.79
6480;DHT22;71753;48.772;9.148;2024-02-14T01:42:58;5.85;75.54
6480;DHT22;71753;48.772;9.148;2024-02-14T01:45:26;5.80;75.90
6480;DHT22;71753;48.772;9.148;2024-02-14T01:47:53;5.81;75.60
6480;DHT22;71753;48.772;9.148;2024-02-14T01:50:22;5.77;76.57
6480;DHT22;71753;48.772;9.148;2024-02-14T01:52:54;5.76;76.39
6480;DHT22;71753;48.772;9.148;2024-02-14T01:55:22;5.76;76.71
6480;DHT22;71753;48.772;9.148;2024-02-14T01:57:50;5.79;76.35
6480;DHT22;71753;48.772;9.148;2024-02-14T02:00:17;5.78;76.86
6480;DHT22;71753;48.772;9.148;2024-02-14T02:02:44;5.76;77.30
6480;DHT22;71753;48.772;9.148;2024-02-14T02:05:12;5.74;77.20
6480;DHT22;71753;48.772;9.148;2024-02-14T02:07:39;5.71;77.68
6480;DHT22;71753;48.772;9.148;2024-02-14T02:10:09;5.74;77.71
6480;DHT22;71753;48.772;9.148;2024-02-14T02:12:35;5.70;77.88
6480;DHT22;71753;48.772;9.148;2024-02-14T02:15:06;5.74;77.86
6480;DHT22;71753;48.772;9.148;2024-02-14T02:17:36;5.70;78.03
6480;DHT22;71753;48.772;9.148;2024-02-14T02:20:03;5.70;78.21
6480;DHT22;71753;48.772;9.148;2024-02-14T02:22:32;5.74;77.65
6480;DHT22;71753;48.772;9.148;2024-02-14T02:25:02;5.76;77.47
6480;DHT22;71753;48.772;9.148;2024-02-14T02:27:28;5.79;77.21
6480;DHT22;71753;48.772;9.148;2024-02-14T02:29:55;5.77;77.26
6480;DHT22;71753;48.772;9.148;2024-02-14T02:32:22;5.74;77.08
6480;DHT22;71753;48.772;9.148;2024-02-14T02:34:48;5.75;76.88
6480;DHT22;71753;48.772;9.148;2024-02-14T02:37:15;5.70;77.39
6480;DHT22;71753;48.772;9.148;2024-02-14T02:39:43;5.69;77.69
6480;DHT22;71753;48.772;9.148;2024-02-14T02:42:11;5.67;77.72
6480;DHT22;71753;48.772;9.148;2024-02-14T02:44:39;5.69;77.17
6480;DHT22;71753;48.772;9.148;2024-02-14T02:47:05;5.70;76.76
6480;DHT22;71753;48.772;9.148;2024-02-14T02:49:32;5.68;77.15
6480;DHT22;71753;48.772;9.148;2024-02-14T02:51:59;5.66;77.16
6480;DHT22;71753;48.772;9.148;2024-02-14T02:54:25;5.66;77.31
6480;DHT22;71753;48.772;9.148;2024-02-14T02:56:52;5.63;77.47
6480;DHT22;71753;48.772;9.148;2024-02-14T02:59:20;5.62;77.19
6480;DHT22;71753;48.772;9.148;2024-02-14T03:01:47;5.55;76.95
6480;DHT22;71753;48.772;9.148;2024-02-14T03:04:14;5.55;77.21
6480;DHT22;71753;48.772;9.148;2024-02-14T03:06:41;5.59;76.80
6480;DHT22;71753;48.772;9.148;2024-02-14T03:09:10;5.65;76.03
6480;DHT22;71753;48.772;9.148;2024-02-14T03:11:38;5.61;76.56
6480;DHT22;71753;48.772;9.148;2024-02-14T03:14:04;5.62;76.41
6480;DHT22;71753;48.772;9.148;2024-02-14T03:16:34;5.52;76.77
6480;DHT22;71753;48.772;9.148;2024-02-14T03:19:02;5.49;77.12
6480;DHT22;71753;48.772;9.148;2024-02-14T03:21:30;5.45;77.44
6480;DHT22;71753;48.772;9.148;2024-02-14T03:23:57;5.48;77.07
6480;DHT22;71753;48.772;9.148;2024-02-14T03:26:24;5.52;76.43
6480;DHT22;71753;48.772;9.148;2024-02-14T03:28:52;5.50;76.81
6480;DHT22;71753;48.772;9.148;2024-02-14T03:31:20;5.36;77.89
6480;DHT22;71753;48.772;9.148;2024-02-14T03:33:48;5.33;77.60
6480;DHT22;71753;48.772;9.148;2024-02-14T03:36:14;5.26;78.21
6480;DHT22;71753;48.772;9.148;2024-02-14T03:38:41;5.26;77.93
6480;DHT22;71753;48.772;9.148;2024-02-14T03:41:08;5.33;77.56
6480;DHT22;71753;48.772;9.148;2024-02-14T03:43:34;5.38;77.21
6480;DHT22;71753;48.772;9.148;2024-02-14T03:46:01;5.39;77.44
6480;DHT22;71753;48.772;9.148;2024-02-14T03:48:28;5.39;77.50
6480;DHT22;71753;48.772;9.148;2024-02-14T03:50:56;5.38;77.64
6480;DHT22;71753;48.772;9.148;2024-02-14T03:53:23;5.38;77.90
6480;DHT22;71753;48.772;9.148;2024-02-14T03:55:50;5.45;76.81
6480;DHT22;71753;48.772;9.148;2024-02-14T03:58:18;5.41;77.80
6480;DHT22;71753;48.772;9.148;2024-02-14T04:00:48;5.56;76.73
6480;DHT22;71753;48.772;9.148;2024-02-14T04:03:16;5.65;75.79
6480;DHT22;71753;48.772;9.148;2024-02-14T04:05:43;5.59;77.52
6480;DHT22;71753;48.772;9.148;2024-02-14T04:08:11;5.59;77.56
6480;DHT22;71753;48.772;9.148;2024-02-14T04:10:38;5.50;77.53
6480;DHT22;71753;48.772;9.148;2024-02-14T04:13:05;5.55;76.85
6480;DHT22;71753;48.772;9.148;2024-02-14T04:15:32;5.56;76.34
6480;DHT22;71753;48.772;9.148;2024-02-14T04:17:58;5.54;76.76
6480;DHT22;71753;48.772;9.148;2024-02-14T04:20:27;5.60;76.30
6480;DHT22;71753;48.772;9.148;2024-02-14T04:22:54;5.63;75.78
6480;DHT22;71753;48.772;9.148;2024-02-14T04:25:22;5.72;74.93
6480;DHT22;71753;48.772;9.148;2024-02-14T04:27:49;5.71;75.07
6480;DHT22;71753;48.772;9.148;2024-02-14T04:30:16;5.82;74.18
6480;DHT22;71753;48.772;9.148;2024-02-14T04:32:42;5.83;73.49
6480;DHT22;71753;48.772;9.148;2024-02-14T04:35:09;5.85;73.00
6480;DHT22;71753;48.772;9.148;2024-02-14T04:37:36;5.85;73.14
6480;DHT22;71753;48.772;9.148;2024-02-14T04:40:04;5.83;73.70
6480;DHT22;71753;48.772;9.148;2024-02-14T04:42:32;5.87;72.80
6480;DHT22;71753;48.772;9.148;2024-02-14T04:44:59;5.92;73.48
6480;DHT22;71753;48.772;9.148;2024-02-14T04:47:26;5.91;73.01
6480;DHT22;71753;48.772;9.148;2024-02-14T04:49:55;5.93;73.25
6480;DHT22;71753;48.772;9.148;2024-02-14T04:52:21;5.95;73.02
6480;DHT22;71753;48.772;9.148;2024-02-14T04:54:48;5.95;73.63
6480;DHT22;71753;48.772;9.148;2024-02-14T04:57:15;5.94;72.65
6480;DHT22;71753;48.772;9.148;2024-02-14T04:59:43;5.92;73.38
6480;DHT22;71753;48.772;9.148;2024-02-14T05:02:09;5.87;73.12
6480;DHT22;71753;48.772;9.148;2024-02-14T05:04:36;5.83;73.67
6480;DHT22;71753;48.772;9.148;2024-02-14T05:07:04;5.85;73.64
6480;DHT22;71753;48.772;9.148;2024-02-14T05:09:31;5.84;73.23
6480;DHT22;71753;48.772;9.148;2024-02-14T05:11:58;5.89;73.49
6480;DHT22;71753;48.772;9.148;2024-02-14T05:14:26;5.86;73.59
6480;DHT22;71753;48.772;9.148;2024-02-14T05:16:57;5.86;73.61
6480;DHT22;71753;48.772;9.148;2024-02-14T05:19:26;5.92;73.71
6480;DHT22;71753;48.772;9.148;2024-02-14T05:21:54;5.92;73.28
6480;DHT22;71753;48.772;9.148;2024-02-14T05:24:21;5.86;73.30
6480;DHT22;71753;48.772;9.148;2024-02-14T05:26:47;5.86;73.09
6480;DHT22;71753;48.772;9.148;2024-02-14T05:29:14;5.90;73.29
6480;DHT22;71753;48.772;9.148;2024-02-14T05:31:45;5.85;73.47
6480;DHT22;71753;48.772;9.148;2024-02-14T05:34:13;5.90;73.41
6480;DHT22;71753;48.772;9.148;2024-02-14T05:36:40;5.87;73.37
6480;DHT22;71753;48.772;9.148;2024-02-14T05:39:08;5.90;73.32
6480;DHT22;71753;48.772;9.148;2024-02-14T05:41:35;5.85;73.63
6480;DHT22;71753;48.772;9.148;2024-02-14T05:44:02;5.89;73.53
6480;DHT22;71753;48.772;9.148;2024-02-14T05:46:28;5.95;73.29
6480;DHT22;71753;48.772;9.148;2024-02-14T05:48:55;5.96;73.53
6480;DHT22;71753;48.772;9.148;2024-02-14T05:51:24;5.96;73.15
6480;DHT22;71753;48.772;9.148;2024-02-14T05:53:50;6.02;72.87
6480;DHT22;71753;48.772;9.148;2024-02-14T05:56:17;6.05;73.06
6480;DHT22;71753;48.772;9.148;2024-02-14T05:58:44;6.07;73.59
6480;DHT22;71753;48.772;9.148;2024-02-14T06:01:10;6.06;73.30
6480;DHT22;71753;48.772;9.148;2024-02-14T06:03:37;5.99;73.22
6480;DHT22;71753;48.772;9.148;2024-02-14T06:06:04;5.92;73.88
6480;DHT22;71753;48.772;9.148;2024-02-14T06:08:32;5.91;73.78
6480;DHT22;71753;48.772;9.148;2024-02-14T06:10:59;5.94;73.61
6480;DHT22;71753;48.772;9.148;2024-02-14T06:13:25;5.92;73.65
6480;DHT22;71753;48.772;9.148;2024-02-14T06:15:52;5.92;73.54
6480;DHT22;71753;48.772;9.148;2024-02-14T06:18:19;5.93;73.63
6480;DHT22;71753;48.772;9.148;2024-02-14T06:20:45;5.90;73.69
6480;DHT22;71753;48.772;9.148;2024-02-14T06:23:12;5.87;74.05
6480;DHT22;71753;48.772;9.148;2024-02-14T06:25:40;5.96;73.32
6480;DHT22;71753;48.772;9.148;2024-02-14T06:28:07;6.02;72.63
6480;DHT22;71753;48.772;9.148;2024-02-14T06:30:35;6.01;73.15
6480;DHT22;71753;48.772;9.148;2024-02-14T06:33:01;6.04;72.93
6480;DHT22;71753;48.772;9.148;2024-02-14T06:35:28;6.05;72.81
6480;DHT22;71753;48.772;9.148;2024-02-14T06:37:55;6.05;73.00
6480;DHT22;71753;48.772;9.148;2024-02-14T06:40:22;6.07;72.73
6480;DHT22;71753;48.772;9.148;2024-02-14T06:42:50;6.12;72.35
6480;DHT22;71753;48.772;9.148;2024-02-14T06:45:17;6.16;71.96
6480;DHT22;71753;48.772;9.148;2024-02-14T06:47:43;6.24;71.74
6480;DHT22;71753;48.772;9.148;2024-02-14T06:50:10;6.25;72.00
6480;DHT22;71753;48.772;9.148;2024-02-14T06:52:37;6.31;71.66
6480;DHT22;71753;48.772;9.148;2024-02-14T06:55:04;6.39;71.35
6480;DHT22;71753;48.772;9.148;2024-02-14T06:57:31;6.45;71.32
6480;DHT22;71753;48.772;9.148;2024-02-14T06:59:59;6.50;71.05
6480;DHT22;71753;48.772;9.148;2024-02-14T07:02:25;6.57;70.77
6480;DHT22;71753;48.772;9.148;2024-02-14T07:04:53;6.63;70.51
6480;DHT22;71753;48.772;9.148;2024-02-14T07:07:20;6.64;70.77
6480;DHT22;71753;48.772;9.148;2024-02-14T07:09:46;6.68;70.36
6480;DHT22;71753;48.772;9.148;2024-02-14T07:12:13;6.73;70.35
6480;DHT22;71753;48.772;9.148;2024-02-14T07:14:40;6.80;70.45
6480;DHT22;71753;48.772;9.148;2024-02-14T07:17:08;6.83;70.42
6480;DHT22;71753;48.772;9.148;2024-02-14T07:19:34;6.91;69.74
6480;DHT22;71753;48.772;9.148;2024-02-14T07:22:01;6.96;70.00
6480;DHT22;71753;48.772;9.148;2024-02-14T07:24:29;7.07;69.32
6480;DHT22;71753;48.772;9.148;2024-02-14T07:26:55;7.15;68.91
6480;DHT22;71753;48.772;9.148;2024-02-14T07:29:23;7.19;68.74
6480;DHT22;71753;48.772;9.148;2024-02-14T07:31:49;7.20;69.59
6480;DHT22;71753;48.772;9.148;2024-02-14T07:34:17;7.25;69.43
6480;DHT22;71753;48.772;9.148;2024-02-14T07:36:44;7.37;68.63
6480;DHT22;71753;48.772;9.148;2024-02-14T07:39:11;7.40;68.53
6480;DHT22;71753;48.772;9.148;2024-02-14T07:41:38;7.46;68.45
6480;DHT22;71753;48.772;9.148;2024-02-14T07:44:05;7.58;68.11
6480;DHT22;71753;48.772;9.148;2024-02-14T07:46:31;7.67;68.20
6480;DHT22;71753;48.772;9.148;2024-02-14T07:48:58;7.77;67.24
6480;DHT22;71753;48.772;9.148;2024-02-14T07:51:26;7.86;67.65
6480;DHT22;71753;48.772;9.148;2024-02-14T07:53:54;7.94;67.33
6480;DHT22;71753;48.772;9.148;2024-02-14T07:56:21;8.03;66.48
6480;DHT22;71753;48.772;9.148;2024-02-14T07:58:47;8.09;66.24
6480;DHT22;71753;48.772;9.148;2024-02-14T08:01:15;8.12;66.88
6480;DHT22;71753;48.772;9.148;2024-02-14T08:03:41;8.17;66.43
6480;DHT22;71753;48.772;9.148;2024-02-14T08:06:08;8.21;65.92
6480;DHT22;71753;48.772;9.148;2024-02-14T08:08:36;8.21;65.88
6480;DHT22;71753;48.772;9.148;2024-02-14T08:11:03;8.23;66.47
6480;DHT22;71753;48.772;9.148;2024-02-14T08:13:30;8.28;65.97
6480;DHT22;71753;48.772;9.148;2024-02-14T08:15:57;8.37;65.66
6480;DHT22;71753;48.772;9.148;2024-02-14T08:18:24;8.42;65.73
6480;DHT22;71753;48.772;9.148;2024-02-14T08:20:52;8.49;65.97
6480;DHT22;71753;48.772;9.148;2024-02-14T08:23:19;8.56;64.81
6480;DHT22;71753;48.772;9.148;2024-02-14T08:25:47;8.61;65.37
6480;DHT22;71753;48.772;9.148;2024-02-14T08:28:14;8.56;65.01
6480;DHT22;71753;48.772;9.148;2024-02-14T08:30:43;8.74;64.66
6480;DHT22;71753;48.772;9.148;2024-02-14T08:33:10;8.78;65.03
6480;DHT22;71753;48.772;9.148;2024-02-14T08:35:37;8.91;65.04
6480;DHT22;71753;48.772;9.148;2024-02-14T08:38:04;9.11;64.59
6480;DHT22;71753;48.772;9.148;2024-02-14T08:40:32;9.22;62.80
6480;DHT22;71753;48.772;9.148;2024-02-14T08:43:00;9.50;63.02
6480;DHT22;71753;48.772;9.148;2024-02-14T08:45:26;9.37;62.16
6480;DHT22;71753;48.772;9.148;2024-02-14T08:47:55;9.59;62.70
6480;DHT22;71753;48.772;9.148;2024-02-14T08:50:21;9.51;62.44
6480;DHT22;71753;48.772;9.148;2024-02-14T08:52:48;9.40;64.00
6480;DHT22;71753;48.772;9.148;2024-02-14T08:55:15;9.41;63.49
6480;DHT22;71753;48.772;9.148;2024-02-14T08:57:44;9.52;63.32
6480;DHT22;71753;48.772;9.148;2024-02-14T09:00:15;9.70;62.68
6480;DHT22;71753;48.772;9.148;2024-02-14T09:02:45;9.84;62.57
6480;DHT22;71753;48.772;9.148;2024-02-14T09:05:12;9.99;61.86
6480;DHT22;71753;48.772;9.148;2024-02-14T09:07:39;9.99;62.15
6480;DHT22;71753;48.772;9.148;2024-02-14T09:10:07;9.74;62.76
6480;DHT22;71753;48.772;9.148;2024-02-14T09:12:35;9.89;62.32
6480;DHT22;71753;48.772;9.148;2024-02-14T09:15:03;9.92;62.80
6480;DHT22;71753;48.772;9.148;2024-02-14T09:17:32;9.97;62.33
6480;DHT22;71753;48.772;9.148;2024-02-14T09:19:58;9.97;63.47
6480;DHT22;71753;48.772;9.148;2024-02-14T09:22:25;9.96;62.53
6480;DHT22;71753;48.772;9.148;2024-02-14T09:24:52;9.99;63.02
6480;DHT22;71753;48.772;9.148;2024-02-14T09:27:19;10.13;63.29
6480;DHT22;71753;48.772;9.148;2024-02-14T09:29:46;10.25;62.68
6480;DHT22;71753;48.772;9.148;2024-02-14T09:32:13;10.39;61.93
6480;DHT22;71753;48.772;9.148;2024-02-14T09:34:41;10.80;61.31
6480;DHT22;71753;48.772;9.148;2024-02-14T09:37:07;10.64;62.05
6480;DHT22;71753;48.772;9.148;2024-02-14T09:39:34;10.69;61.54
6480;DHT22;71753;48.772;9.148;2024-02-14T09:42:06;10.63;62.02
6480;DHT22;71753;48.772;9.148;2024-02-14T09:44:35;10.68;61.54
6480;DHT22;71753;48.772;9.148;2024-02-14T09:47:03;10.51;62.08
6480;DHT22;71753;48.772;9.148;2024-02-14T09:49:32;10.39;62.69
6480;DHT22;71753;48.772;9.148;2024-02-14T09:52:03;10.29;63.34
6480;DHT22;71753;48.772;9.148;2024-02-14T09:54:31;10.36;62.93
6480;DHT22;71753;48.772;9.148;2024-02-14T09:57:00;10.34;63.82
6480;DHT22;71753;48.772;9.148;2024-02-14T09:59:28;10.41;62.99
6480;DHT22;71753;48.772;9.148;2024-02-14T10:01:55;10.48;63.70
6480;DHT22;71753;48.772;9.148;2024-02-14T10:04:22;10.52;63.08
6480;DHT22;71753;48.772;9.148;2024-02-14T10:06:50;10.83;63.06
6480;DHT22;71753;48.772;9.148;2024-02-14T10:09:20;11.07;62.64
6480;DHT22;71753;48.772;9.148;2024-02-14T10:11:47;11.01;63.55
6480;DHT22;71753;48.772;9.148;2024-02-14T10:14:14;10.82;63.95
6480;DHT22;71753;48.772;9.148;2024-02-14T10:16:40;10.84;64.21
6480;DHT22;71753;48.772;9.148;2024-02-14T10:19:14;10.81;65.01
6480;DHT22;71753;48.772;9.148;2024-02-14T10:21:41;10.79;65.47
6480;DHT22;71753;48.772;9.148;2024-02-14T10:24:08;10.82;66.15
6480;DHT22;71753;48.772;9.148;2024-02-14T10:26:37;10.88;66.56
6480;DHT22;71753;48.772;9.148;2024-02-14T10:29:07;11.20;66.00
6480;DHT22;71753;48.772;9.148;2024-02-14T10:31:35;11.39;65.55
6480;DHT22;71753;48.772;9.148;2024-02-14T10:34:02;11.64;64.95
6480;DHT22;71753;48.772;9.148;2024-02-14T10:36:31;11.87;63.99
6480;DHT22;71753;48.772;9.148;2024-02-14T10:39:00;12.11;63.37
6480;DHT22;71753;48.772;9.148;2024-02-14T10:41:30;12.01;63.86
6480;DHT22;71753;48.772;9.148;2024-02-14T10:44:02;11.86;63.91
6480;DHT22;71753;48.772;9.148;2024-02-14T10:46:31;11.77;63.82
6480;DHT22;71753;48.772;9.148;2024-02-14T10:49:02;12.11;64.08
6480;DHT22;71753;48.772;9.148;2024-02-14T10:51:31;12.06;64.17
6480;DHT22;71753;48.772;9.148;2024-02-14T10:53:58;12.45;62.31
6480;DHT22;71753;48.772;9.148;2024-02-14T10:56:28;12.56;62.51
6480;DHT22;71753;48.772;9.148;2024-02-14T10:58:56;12.20;63.92
6480;DHT22;71753;48.772;9.148;2024-02-14T11:01:26;11.91;65.63
6480;DHT22;71753;48.772;9.148;2024-02-14T11:03:56;11.83;66.24
6480;DHT22;71753;48.772;9.148;2024-02-14T11:06:24;12.05;64.91
6480;DHT22;71753;48.772;9.148;2024-02-14T11:08:58;12.15;65.00
6480;DHT22;71753;48.772;9.148;2024-02-14T11:11:28;12.30;65.04
6480;DHT22;71753;48.772;9.148;2024-02-14T11:13:56;12.34;64.59
6480;DHT22;71753;48.772;9.148;2024-02-14T11:16:26;12.36;65.55
6480;DHT22;71753;48.772;9.148;2024-02-14T11:18:54;12.10;66.24
6480;DHT22;71753;48.772;9.148;2024-02-14T11:21:31;12.25;65.95
6480;DHT22;71753;48.772;9.148;2024-02-14T11:24:04;12.25;66.02
6480;DHT22;71753;48.772;9.148;2024-02-14T11:26:45;12.03;66.98
6480;DHT22;71753;48.772;9.148;2024-02-14T11:29:14;12.06;67.33
6480;DHT22;71753;48.772;9.148;2024-02-14T11:31:43;11.91;67.62
6480;DHT22;71753;48.772;9.148;2024-02-14T11:34:11;11.92;67.30
6480;DHT22;71753;48.772;9.148;2024-02-14T11:36:41;12.04;67.31
6480;DHT22;71753;48.772;9.148;2024-02-14T11:39:08;12.07;67.07
6480;DHT22;71753;48.772;9.148;2024-02-14T11:41:35;12.03;66.88
6480;DHT22;71753;48.772;9.148;2024-02-14T11:44:04;12.04;67.17
6480;DHT22;71753;48.772;9.148;2024-02-14T11:46:31;12.31;66.40
6480;DHT22;71753;48.772;9.148;2024-02-14T11:48:59;12.20;66.87
6480;DHT22;71753;48.772;9.148;2024-02-14T11:51:28;12.25;66.60
6480;DHT22;71753;48.772;9.148;2024-02-14T11:53:56;12.04;67.33
6480;DHT22;71753;48.772;9.148;2024-02-14T11:56:30;12.34;66.91
6480;DHT22;71753;48.772;9.148;2024-02-14T11:58:59;12.63;65.24
6480;DHT22;71753;48.772;9.148;2024-02-14T12:01:28;13.05;64.01
6480;DHT22;71753;48.772;9.148;2024-02-14T12:03:56;12.93;64.56
6480;DHT22;71753;48.772;9.148;2024-02-14T12:06:24;12.65;64.98
6480;DHT22;71753;48.772;9.148;2024-02-14T12:08:51;12.55;65.94
6480;DHT22;71753;48.772;9.148;2024-02-14T12:11:18;12.72;65.00
6480;DHT22;71753;48.772;9.148;2024-02-14T12:13:49;13.25;63.63
6480;DHT22;71753;48.772;9.148;2024-02-14T12:16:19;13.70;62.47
6480;DHT22;71753;48.772;9.148;2024-02-14T12:18:47;14.22;60.42
6480;DHT22;71753;48.772;9.148;2024-02-14T12:21:14;13.34;62.96
6480;DHT22;71753;48.772;9.148;2024-02-14T12:23:42;13.43;62.90
6480;DHT22;71753;48.772;9.148;2024-02-14T12:26:10;13.32;64.13
6480;DHT22;71753;48.772;9.148;2024-02-14T12:28:46;13.23;64.07
6480;DHT22;71753;48.772;9.148;2024-02-14T12:31:21;13.29;63.42
6480;DHT22;71753;48.772;9.148;2024-02-14T12:33:48;12.97;64.28
6480;DHT22;71753;48.772;9.148;2024-02-14T12:36:22;12.95;65.79
6480;DHT22;71753;48.772;9.148;2024-02-14T12:38:51;12.97;64.98
6480;DHT22;71753;48.772;9.148;2024-02-14T12:41:18;12.92;64.99
6480;DHT22;71753;48.772;9.148;2024-02-14T12:43:45;13.04;64.92
6480;DHT22;71753;48.772;9.148;2024-02-14T12:46:13;13.53;63.38
6480;DHT22;71753;48.772;9.148;2024-02-14T12:48:41;13.67;62.35
6480;DHT22;71753;48.772;9.148;2024-02-14T12:51:10;13.99;62.05
6480;DHT22;71753;48.772;9.148;2024-02-14T12:53:38;14.05;61.12
6480;DHT22;71753;48.772;9.148;2024-02-14T12:56:07;13.67;62.04
6480;DHT22;71753;48.772;9.148;2024-02-14T12:58:34;13.54;62.97
6480;DHT22;71753;48.772;9.148;2024-02-14T13:01:02;13.63;63.16
6480;DHT22;71753;48.772;9.148;2024-02-14T13:03:31;13.60;63.37
6480;DHT22;71753;48.772;9.148;2024-02-14T13:05:59;13.58;63.06
6480;DHT22;71753;48.772;9.148;2024-02-14T13:08:26;13.59;63.25
6480;DHT22;71753;48.772;9.148;2024-02-14T13:10:52;13.81;62.70
6480;DHT22;71753;48.772;9.148;2024-02-14T13:13:21;13.51;63.24
6480;DHT22;71753;48.772;9.148;2024-02-14T13:15:47;13.56;63.29
6480;DHT22;71753;48.772;9.148;2024-02-14T13:18:14;13.60;63.50
6480;DHT22;71753;48.772;9.148;2024-02-14T13:20:42;13.80;62.91
6480;DHT22;71753;48.772;9.148;2024-02-14T13:23:09;13.84;62.99
6480;DHT22;71753;48.772;9.148;2024-02-14T13:25:36;13.89;62.97
6480;DHT22;71753;48.772;9.148;2024-02-14T13:28:03;14.23;61.61
6480;DHT22;71753;48.772;9.148;2024-02-14T13:30:32;14.25;61.34
6480;DHT22;71753;48.772;9.148;2024-02-14T13:32:59;14.07;62.25
6480;DHT22;71753;48.772;9.148;2024-02-14T13:35:25;14.04;62.39
6480;DHT22;71753;48.772;9.148;2024-02-14T13:37:52;13.91;62.88
6480;DHT22;71753;48.772;9.148;2024-02-14T13:40:19;13.81;63.37
6480;DHT22;71753;48.772;9.148;2024-02-14T13:42:45;13.71;63.65
6480;DHT22;71753;48.772;9.148;2024-02-14T13:45:12;13.94;63.21
6480;DHT22;71753;48.772;9.148;2024-02-14T13:47:40;14.24;62.69
6480;DHT22;71753;48.772;9.148;2024-02-14T13:50:08;14.26;62.14
6480;DHT22;71753;48.772;9.148;2024-02-14T13:52:35;14.25;62.15
6480;DHT22;71753;48.772;9.148;2024-02-14T13:55:02;14.01;62.69
6480;DHT22;71753;48.772;9.148;2024-02-14T13:57:31;14.07;62.94
6480;DHT22;71753;48.772;9.148;2024-02-14T13:59:58;14.04;63.11
6480;DHT22;71753;48.772;9.148;2024-02-14T14:02:25;14.05;63.26
6480;DHT22;71753;48.772;9.148;2024-02-14T14:04:53;13.89;64.66
6480;DHT22;71753;48.772;9.148;2024-02-14T14:07:20;13.78;64.64
6480;DHT22;71753;48.772;9.148;2024-02-14T14:09:49;13.67;65.02
6480;DHT22;71753;48.772;9.148;2024-02-14T14:12:15;13.67;65.09
6480;DHT22;71753;48.772;9.148;2024-02-14T14:14:41;13.55;66.31
6480;DHT22;71753;48.772;9.148;2024-02-14T14:17:08;13.48;66.01
6480;DHT22;71753;48.772;9.148;2024-02-14T14:19:34;13.51;65.82
6480;DHT22;71753;48.772;9.148;2024-02-14T14:22:03;13.59;66.09
6480;DHT22;71753;48.772;9.148;2024-02-14T14:24:30;13.44;66.26
6480;DHT22;71753;48.772;9.148;2024-02-14T14:26:57;13.50;66.13
6480;DHT22;71753;48.772;9.148;2024-02-14T14:29:24;13.49;66.29
6480;DHT22;71753;48.772;9.148;2024-02-14T14:31:50;13.50;66.14
6480;DHT22;71753;48.772;9.148;2024-02-14T14:34:17;13.41;65.97
6480;DHT22;71753;48.772;9.148;2024-02-14T14:36:44;13.40;66.36
6480;DHT22;71753;48.772;9.148;2024-02-14T14:39:13;13.26;66.93
6480;DHT22;71753;48.772;9.148;2024-02-14T14:41:39;13.23;66.57
6480;DHT22;71753;48.772;9.148;2024-02-14T14:44:07;13.37;66.37
6480;DHT22;71753;48.772;9.148;2024-02-14T14:46:34;13.40;66.14
6480;DHT22;71753;48.772;9.148;2024-02-14T14:49:01;13.39;66.56
6480;DHT22;71753;48.772;9.148;2024-02-14T14:51:28;13.35;66.70
6480;DHT22;71753;48.772;9.148;2024-02-14T14:53:54;13.34;66.67
6480;DHT22;71753;48.772;9.148;2024-02-14T14:56:22;13.31;66.75
6480;DHT22;71753;48.772;9.148;2024-02-14T14:58:51;13.33;66.90
6480;DHT22;71753;48.772;9.148;2024-02-14T15:01:17;13.30;67.03
6480;DHT22;71753;48.772;9.148;2024-02-14T15:03:44;13.29;66.64
6480;DHT22;71753;48.772;9.148;2024-02-14T15:06:11;13.26;66.72
6480;DHT22;71753;48.772;9.148;2024-02-14T15:08:40;13.21;67.11
6480;DHT22;71753;48.772;9.148;2024-02-14T15:11:09;13.24;66.72
6480;DHT22;71753;48.772;9.148;2024-02-14T15:13:37;13.29;67.27
6480;DHT22;71753;48.772;9.148;2024-02-14T15:16:04;13.33;66.46
6480;DHT22;71753;48.772;9.148;2024-02-14T15:18:33;13.37;66.63
6480;DHT22;71753;48.772;9.148;2024-02-14T15:21:00;13.23;66.65
6480;DHT22;71753;48.772;9.148;2024-02-14T15:23:27;13.35;66.80
6480;DHT22;71753;48.772;9.148;2024-02-14T15:25:54;13.37;66.59
6480;DHT22;71753;48.772;9.148;2024-02-14T15:28:28;13.40;66.73
6480;DHT22;71753;48.772;9.148;2024-02-14T15:30:56;13.38;66.59
6480;DHT22;71753;48.772;9.148;2024-02-14T15:33:40;13.33;66.66
6480;DHT22;71753;48.772;9.148;2024-02-14T15:36:08;13.34;66.18
6480;DHT22;71753;48.772;9.148;2024-02-14T15:38:35;13.38;66.85
6480;DHT22;71753;48.772;9.148;2024-02-14T15:41:02;13.35;66.73
6480;DHT22;71753;48.772;9.148;2024-02-14T15:43:29;13.35;66.85
6480;DHT22;71753;48.772;9.148;2024-02-14T15:45:57;13.33;67.05
6480;DHT22;71753;48.772;9.148;2024-02-14T15:48:23;13.26;67.06
6480;DHT22;71753;48.772;9.148;2024-02-14T15:50:53;13.24;67.65
6480;DHT22;71753;48.772;9.148;2024-02-14T15:53:20;13.22;67.33
6480;DHT22;71753;48.772;9.148;2024-02-14T15:55:46;13.20;67.35
6480;DHT22;71753;48.772;9.148;2024-02-14T15:58:13;13.21;67.59